sensor_id;sensor_type;location;lat;lon;timestamp;pressure;altitude;pressure_sealevel;temperature;humidity
65997;BME280;52765;52.258;21.052;2023-04-07T00:00:33;100537.06;;;4.53;100.00
65997;BME280;52765;52.258;21.052;2023-04-07T00:02:59;100537.06;;;4.53;100.00
65997;BME280;52765;52.258;21.052;2023-04-07T00:05:26;100532.03;;;4.61;100.00
65997;BME280;52765;52.258;21.052;2023-04-07T00:07:51;100540.13;;;4.59;100.00
65997;BME280;52765;52.258;21.052;2023-04-07T00:10:17;100535.41;;;4.52;100.00
65997;BME280;52765;52.258;21.052;2023-04-07T00:12:42;100534.53;;;4.51;100.00
65997;BME280;52765;52.258;21.052;2023-04-07T00:15:08;100527.28;;;4.53;100.00
65997;BME280;52765;52.258;21.052;2023-04-07T00:17:34;100525.44;;;4.54;100.00
65997;BME280;52765;52.258;21.052;2023-04-07T00:19:59;100531.06;;;4.62;100.00
65997;BME280;52765;52.258;21.052;2023-04-07T00:22:25;100518.34;;;4.66;100.00
65997;BME280;52765;52.258;21.052;2023-04-07T00:24:50;100527.59;;;4.73;100.00
65997;BME280;52765;52.258;21.052;2023-04-07T00:27:17;100525.03;;;4.71;100.00
65997;BME280;52765;52.258;21.052;2023-04-07T00:29:42;100520.56;;;4.72;100.00
65997;BME280;52765;52.258;21.052;2023-04-07T00:32:10;100518.75;;;4.72;100.00
65997;BME280;52765;52.258;21.052;2023-04-07T00:34:36;100515.00;;;4.75;100.00
65997;BME280;52765;52.258;21.052;2023-04-07T00:37:01;100516.69;;;4.76;100.00
65997;BME280;52765;52.258;21.052;2023-04-07T00:39:27;100519.25;;;4.77;100.00
65997;BME280;52765;52.258;21.052;2023-04-07T00:41:52;100524.47;;;4.79;100.00
65997;BME280;52765;52.258;21.052;2023-04-07T00:44:18;100518.19;;;4.80;100.00
65997;BME280;52765;52.258;21.052;2023-04-07T00:46:43;100515.03;;;4.86;100.00
65997;BME280;52765;52.258;21.052;2023-04-07T00:49:11;100512.88;;;4.91;100.00
65997;BME280;52765;52.258;21.052;2023-04-07T00:51:37;100506.44;;;4.94;100.00
65997;BME280;52765;52.258;21.052;2023-04-07T00:54:03;100518.44;;;4.88;100.00
65997;BME280;52765;52.258;21.052;2023-04-07T00:56:28;100511.41;;;4.87;100.00
65997;BME280;52765;52.258;21.052;2023-04-07T00:58:54;100503.88;;;4.92;100.00
65997;BME280;52765;52.258;21.052;2023-04-07T01:01:50;100506.44;;;4.94;100.00
65997;BME280;52765;52.258;21.052;2023-04-07T01:04:25;100513.00;;;4.90;100.00
65997;BME280;52765;52.258;21.052;2023-04-07T01:06:57;100498.53;;;4.92;100.00
65997;BME280;52765;52.258;21.052;2023-04-07T01:09:31;100509.84;;;4.96;100.00
65997;BME280;52765;52.258;21.052;2023-04-07T01:12:23;100500.66;;;5.00;100.00
65997;BME280;52765;52.258;21.052;2023-04-07T01:14:53;100505.13;;;4.99;100.00
65997;BME280;52765;52.258;21.052;2023-04-07T01:17:20;100501.59;;;4.99;100.00
65997;BME280;52765;52.258;21.052;2023-04-07T01:19:56;100509.72;;;4.97;100.00
65997;BME280;52765;52.258;21.052;2023-04-07T01:22:32;100497.38;;;4.96;100.00
65997;BME280;52765;52.258;21.052;2023-04-07T01:30:31;100498.34;;;5.07;100.00
65997;BME280;52765;52.258;21.052;2023-04-07T01:32:58;100492.28;;;5.05;100.00
65997;BME280;52765;52.258;21.052;2023-04-07T01:35:26;100499.19;;;5.07;100.00
65997;BME280;52765;52.258;21.052;2023-04-07T01:37:54;100490.34;;;5.07;100.00
65997;BME280;52765;52.258;21.052;2023-04-07T01:40:20;100484.88;;;5.08;100.00
65997;BME280;52765;52.258;21.052;2023-04-07T01:42:47;100489.00;;;5.12;100.00
65997;BME280;52765;52.258;21.052;2023-04-07T01:45:15;100481.72;;;5.14;100.00
65997;BME280;52765;52.258;21.052;2023-04-07T01:47:41;100498.38;;;5.18;100.00
65997;BME280;52765;52.258;21.052;2023-04-07T01:50:09;100487.44;;;5.21;100.00
65997;BME280;52765;52.258;21.052;2023-04-07T01:52:36;100482.75;;;5.25;100.00
65997;BME280;52765;52.258;21.052;2023-04-07T01:55:05;100493.75;;;5.20;100.00
65997;BME280;52765;52.258;21.052;2023-04-07T01:57:32;100483.81;;;5.22;100.00
65997;BME280;52765;52.258;21.052;2023-04-07T01:59:58;100481.97;;;5.23;100.00
65997;BME280;52765;52.258;21.052;2023-04-07T02:02:24;100493.41;;;5.25;100.00
65997;BME280;52765;52.258;21.052;2023-04-07T02:04:57;100492.31;;;5.27;100.00
65997;BME280;52765;52.258;21.052;2023-04-07T02:09:59;100486.50;;;5.33;100.00
65997;BME280;52765;52.258;21.052;2023-04-07T02:12:28;100483.59;;;5.36;100.00
65997;BME280;52765;52.258;21.052;2023-04-07T02:14:55;100490.84;;;5.34;100.00
65997;BME280;52765;52.258;21.052;2023-04-07T02:17:23;100491.59;;;5.36;100.00
65997;BME280;52765;52.258;21.052;2023-04-07T02:19:51;100485.28;;;5.37;100.00
65997;BME280;52765;52.258;21.052;2023-04-07T02:22:19;100481.66;;;5.38;100.00
65997;BME280;52765;52.258;21.052;2023-04-07T02:24:44;100486.03;;;5.40;100.00
65997;BME280;52765;52.258;21.052;2023-04-07T02:27:10;100485.53;;;5.46;100.00
65997;BME280;52765;52.258;21.052;2023-04-07T02:29:35;100487.13;;;5.48;100.00
65997;BME280;52765;52.258;21.052;2023-04-07T02:32:01;100483.94;;;5.54;100.00
65997;BME280;52765;52.258;21.052;2023-04-07T02:34:26;100482.38;;;5.52;100.00
65997;BME280;52765;52.258;21.052;2023-04-07T02:36:52;100466.09;;;5.55;100.00
65997;BME280;52765;52.258;21.052;2023-04-07T02:39:17;100478.72;;;5.64;100.00
65997;BME280;52765;52.258;21.052;2023-04-07T02:41:43;100484.81;;;5.66;100.00
65997;BME280;52765;52.258;21.052;2023-04-07T02:44:08;100477.75;;;5.65;100.00
65997;BME280;52765;52.258;21.052;2023-04-07T02:46:34;100481.53;;;5.63;100.00
65997;BME280;52765;52.258;21.052;2023-04-07T02:49:00;100478.00;;;5.62;100.00
65997;BME280;52765;52.258;21.052;2023-04-07T02:51:25;100482.16;;;5.66;100.00
65997;BME280;52765;52.258;21.052;2023-04-07T02:53:51;100483.59;;;5.70;100.00
65997;BME280;52765;52.258;21.052;2023-04-07T02:56:17;100475.34;;;5.73;100.00
65997;BME280;52765;52.258;21.052;2023-04-07T02:58:42;100488.56;;;5.75;100.00
65997;BME280;52765;52.258;21.052;2023-04-07T03:01:08;100487.59;;;5.76;100.00
65997;BME280;52765;52.258;21.052;2023-04-07T03:03:33;100484.06;;;5.75;100.00
65997;BME280;52765;52.258;21.052;2023-04-07T03:05:59;100484.91;;;5.76;100.00
65997;BME280;52765;52.258;21.052;2023-04-07T03:08:25;100482.41;;;5.74;100.00
65997;BME280;52765;52.258;21.052;2023-04-07T03:10:51;100489.19;;;5.79;100.00
65997;BME280;52765;52.258;21.052;2023-04-07T03:13:16;100493.44;;;5.81;100.00
65997;BME280;52765;52.258;21.052;2023-04-07T03:15:44;100482.13;;;5.78;100.00
65997;BME280;52765;52.258;21.052;2023-04-07T03:18:10;100492.81;;;5.78;100.00
65997;BME280;52765;52.258;21.052;2023-04-07T03:20:36;100486.63;;;5.77;100.00
65997;BME280;52765;52.258;21.052;2023-04-07T03:23:02;100488.34;;;5.78;100.00
65997;BME280;52765;52.258;21.052;2023-04-07T03:25:27;100484.56;;;5.81;100.00
65997;BME280;52765;52.258;21.052;2023-04-07T03:27:53;100488.56;;;5.86;100.00
65997;BME280;52765;52.258;21.052;2023-04-07T03:30:19;100492.94;;;5.87;100.00
65997;BME280;52765;52.258;21.052;2023-04-07T03:32:44;100485.91;;;5.86;100.00
65997;BME280;52765;52.258;21.052;2023-04-07T03:35:10;100496.59;;;5.86;100.00
65997;BME280;52765;52.258;21.052;2023-04-07T03:37:35;100490.25;;;5.87;100.00
65997;BME280;52765;52.258;21.052;2023-04-07T03:40:01;100499.88;;;5.90;100.00
65997;BME280;52765;52.258;21.052;2023-04-07T03:42:27;100488.31;;;5.89;100.00
65997;BME280;52765;52.258;21.052;2023-04-07T03:44:52;100493.28;;;5.94;100.00
65997;BME280;52765;52.258;21.052;2023-04-07T03:47:18;100494.91;;;5.97;100.00
65997;BME280;52765;52.258;21.052;2023-04-07T03:49:43;100485.66;;;6.01;100.00
65997;BME280;52765;52.258;21.052;2023-04-07T03:52:09;100487.59;;;5.99;100.00
65997;BME280;52765;52.258;21.052;2023-04-07T03:54:35;100486.03;;;5.96;100.00
65997;BME280;52765;52.258;21.052;2023-04-07T03:57:01;100490.16;;;6.00;100.00
65997;BME280;52765;52.258;21.052;2023-04-07T03:59:27;100482.25;;;5.99;100.00
65997;BME280;52765;52.258;21.052;2023-04-07T04:01:53;100491.00;;;6.01;100.00
65997;BME280;52765;52.258;21.052;2023-04-07T04:04:18;100492.84;;;6.00;100.00
65997;BME280;52765;52.258;21.052;2023-04-07T04:06:44;100483.84;;;6.01;100.00
65997;BME280;52765;52.258;21.052;2023-04-07T04:09:12;100481.19;;;6.01;100.00
65997;BME280;52765;52.258;21.052;2023-04-07T04:11:38;100498.19;;;6.00;100.00
65997;BME280;52765;52.258;21.052;2023-04-07T04:14:04;100488.22;;;6.02;100.00
65997;BME280;52765;52.258;21.052;2023-04-07T04:16:30;100489.19;;;6.01;100.00
65997;BME280;52765;52.258;21.052;2023-04-07T04:18:56;100484.69;;;6.02;100.00
65997;BME280;52765;52.258;21.052;2023-04-07T04:21:21;100488.94;;;6.04;100.00
65997;BME280;52765;52.258;21.052;2023-04-07T04:23:47;100504.47;;;6.10;100.00
65997;BME280;52765;52.258;21.052;2023-04-07T04:26:13;100506.06;;;6.13;100.00
65997;BME280;52765;52.258;21.052;2023-04-07T04:28:40;100507.50;;;6.17;100.00
65997;BME280;52765;52.258;21.052;2023-04-07T04:31:05;100502.41;;;6.14;100.00
65997;BME280;52765;52.258;21.052;2023-04-07T04:33:31;100498.53;;;6.18;100.00
65997;BME280;52765;52.258;21.052;2023-04-07T04:35:56;100510.28;;;6.27;100.00
65997;BME280;52765;52.258;21.052;2023-04-07T04:38:22;100503.97;;;6.28;100.00
65997;BME280;52765;52.258;21.052;2023-04-07T04:40:47;100505.91;;;6.26;100.00
65997;BME280;52765;52.258;21.052;2023-04-07T04:43:13;100516.59;;;6.26;100.00
65997;BME280;52765;52.258;21.052;2023-04-07T04:45:38;100516.59;;;6.26;100.00
65997;BME280;52765;52.258;21.052;2023-04-07T04:48:04;100505.91;;;6.26;100.00
65997;BME280;52765;52.258;21.052;2023-04-07T04:50:30;100503.75;;;6.20;100.00
65997;BME280;52765;52.258;21.052;2023-04-07T04:52:55;100517.84;;;6.22;100.00
65997;BME280;52765;52.258;21.052;2023-04-07T04:55:21;100516.59;;;6.26;100.00
65997;BME280;52765;52.258;21.052;2023-04-07T04:57:46;100515.63;;;6.27;100.00
65997;BME280;52765;52.258;21.052;2023-04-07T05:00:12;100513.69;;;6.29;100.00
65997;BME280;52765;52.258;21.052;2023-04-07T05:02:38;100518.44;;;6.25;100.00
65997;BME280;52765;52.258;21.052;2023-04-07T05:05:04;100516.00;;;6.22;100.00
65997;BME280;52765;52.258;21.052;2023-04-07T05:07:30;100518.69;;;6.22;100.00
65997;BME280;52765;52.258;21.052;2023-04-07T05:09:55;100509.44;;;6.26;100.00
65997;BME280;52765;52.258;21.052;2023-04-07T05:12:21;100514.56;;;6.29;100.00
65997;BME280;52765;52.258;21.052;2023-04-07T05:14:46;100514.28;;;6.33;100.00
65997;BME280;52765;52.258;21.052;2023-04-07T05:17:12;100520.38;;;6.35;100.00
65997;BME280;52765;52.258;21.052;2023-04-07T05:19:37;100515.63;;;6.38;100.00
65997;BME280;52765;52.258;21.052;2023-04-07T05:22:03;100517.31;;;6.39;100.00
65997;BME280;52765;52.258;21.052;2023-04-07T05:24:29;100516.34;;;6.40;100.00
65997;BME280;52765;52.258;21.052;2023-04-07T05:26:54;100516.22;;;6.42;100.00
65997;BME280;52765;52.258;21.052;2023-04-07T05:29:22;100518.53;;;6.46;100.00
65997;BME280;52765;52.258;21.052;2023-04-07T05:31:48;100513.88;;;6.48;100.00
65997;BME280;52765;52.258;21.052;2023-04-07T05:34:13;100515.72;;;6.48;100.00
65997;BME280;52765;52.258;21.052;2023-04-07T05:36:39;100512.06;;;6.49;100.00
65997;BME280;52765;52.258;21.052;2023-04-07T05:39:08;100522.84;;;6.59;100.00
65997;BME280;52765;52.258;21.052;2023-04-07T05:41:34;100524.19;;;6.64;100.00
65997;BME280;52765;52.258;21.052;2023-04-07T05:43:59;100511.66;;;6.65;100.00
65997;BME280;52765;52.258;21.052;2023-04-07T05:46:25;100505.78;;;6.71;100.00
65997;BME280;52765;52.258;21.052;2023-04-07T05:48:50;100505.03;;;6.69;100.00
65997;BME280;52765;52.258;21.052;2023-04-07T05:51:16;100517.94;;;6.75;100.00
65997;BME280;52765;52.258;21.052;2023-04-07T05:53:41;100518.88;;;6.74;100.00
65997;BME280;52765;52.258;21.052;2023-04-07T05:56:06;100514.28;;;6.76;100.00
65997;BME280;52765;52.258;21.052;2023-04-07T05:58:32;100521.44;;;6.76;100.00
65997;BME280;52765;52.258;21.052;2023-04-07T06:00:58;100511.31;;;6.79;100.00
65997;BME280;52765;52.258;21.052;2023-04-07T06:03:26;100516.16;;;6.85;100.00
65997;BME280;52765;52.258;21.052;2023-04-07T06:05:52;100522.38;;;6.86;100.00
65997;BME280;52765;52.258;21.052;2023-04-07T06:08:17;100513.50;;;6.85;100.00
65997;BME280;52765;52.258;21.052;2023-04-07T06:10:43;100513.63;;;6.84;100.00
65997;BME280;52765;52.258;21.052;2023-04-07T06:13:08;100509.25;;;6.83;100.00
65997;BME280;52765;52.258;21.052;2023-04-07T06:15:34;100517.16;;;6.84;100.00
65997;BME280;52765;52.258;21.052;2023-04-07T06:17:59;100507.41;;;6.83;100.00
65997;BME280;52765;52.258;21.052;2023-04-07T06:20:28;100510.56;;;6.89;100.00
65997;BME280;52765;52.258;21.052;2023-04-07T06:22:53;100513.44;;;6.97;100.00
65997;BME280;52765;52.258;21.052;2023-04-07T06:25:19;100507.56;;;7.03;100.00
65997;BME280;52765;52.258;21.052;2023-04-07T06:27:45;100513.00;;;7.13;100.00
65997;BME280;52765;52.258;21.052;2023-04-07T06:30:11;100506.00;;;7.21;100.00
65997;BME280;52765;52.258;21.052;2023-04-07T06:32:36;100501.94;;;7.27;100.00
65997;BME280;52765;52.258;21.052;2023-04-07T06:35:02;100516.03;;;7.29;100.00
65997;BME280;52765;52.258;21.052;2023-04-07T06:37:27;100509.31;;;7.35;100.00
65997;BME280;52765;52.258;21.052;2023-04-07T06:39:53;100509.53;;;7.43;100.00
65997;BME280;52765;52.258;21.052;2023-04-07T06:42:18;100496.63;;;7.37;100.00
65997;BME280;52765;52.258;21.052;2023-04-07T06:44:44;100514.63;;;7.46;100.00
65997;BME280;52765;52.258;21.052;2023-04-07T06:47:10;100518.59;;;7.52;100.00
65997;BME280;52765;52.258;21.052;2023-04-07T06:49:35;100513.81;;;7.55;100.00
65997;BME280;52765;52.258;21.052;2023-04-07T06:52:01;100512.59;;;7.69;100.00
65997;BME280;52765;52.258;21.052;2023-04-07T06:54:26;100513.91;;;7.75;100.00
65997;BME280;52765;52.258;21.052;2023-04-07T06:56:52;100521.56;;;7.80;100.00
65997;BME280;52765;52.258;21.052;2023-04-07T06:59:17;100507.13;;;7.81;100.00
65997;BME280;52765;52.258;21.052;2023-04-07T07:01:43;100510.13;;;7.87;100.00
65997;BME280;52765;52.258;21.052;2023-04-07T07:04:09;100512.16;;;7.95;100.00
65997;BME280;52765;52.258;21.052;2023-04-07T07:06:35;100504.91;;;7.86;100.00
65997;BME280;52765;52.258;21.052;2023-04-07T07:09:00;100501.81;;;7.90;100.00
65997;BME280;52765;52.258;21.052;2023-04-07T07:11:27;100502.94;;;7.88;100.00
65997;BME280;52765;52.258;21.052;2023-04-07T07:13:52;100509.19;;;7.98;100.00
65997;BME280;52765;52.258;21.052;2023-04-07T07:16:18;100502.16;;;8.07;100.00
65997;BME280;52765;52.258;21.052;2023-04-07T07:18:44;100511.47;;;8.12;100.00
65997;BME280;52765;52.258;21.052;2023-04-07T07:21:09;100515.88;;;8.13;100.00
65997;BME280;52765;52.258;21.052;2023-04-07T07:23:35;100518.72;;;8.22;100.00
65997;BME280;52765;52.258;21.052;2023-04-07T07:26:00;100516.06;;;8.31;100.00
65997;BME280;52765;52.258;21.052;2023-04-07T07:28:26;100508.03;;;8.41;100.00
65997;BME280;52765;52.258;21.052;2023-04-07T07:30:53;100522.06;;;8.55;100.00
65997;BME280;52765;52.258;21.052;2023-04-07T07:33:18;100526.59;;;8.64;100.00
65997;BME280;52765;52.258;21.052;2023-04-07T07:35:44;100522.78;;;8.66;100.00
65997;BME280;52765;52.258;21.052;2023-04-07T07:38:10;100530.28;;;8.63;100.00
65997;BME280;52765;52.258;21.052;2023-04-07T07:40:36;100525.47;;;8.66;100.00
65997;BME280;52765;52.258;21.052;2023-04-07T07:43:01;100529.28;;;8.74;100.00
65997;BME280;52765;52.258;21.052;2023-04-07T07:45:27;100524.88;;;8.82;100.00
65997;BME280;52765;52.258;21.052;2023-04-07T07:47:52;100523.50;;;8.88;100.00
65997;BME280;52765;52.258;21.052;2023-04-07T07:50:17;100526.59;;;8.83;100.00
65997;BME280;52765;52.258;21.052;2023-04-07T07:52:43;100530.72;;;8.78;100.00
65997;BME280;52765;52.258;21.052;2023-04-07T07:55:11;100524.19;;;8.70;100.00
65997;BME280;52765;52.258;21.052;2023-04-07T07:57:37;100538.75;;;8.68;100.00
65997;BME280;52765;52.258;21.052;2023-04-07T08:00:04;100535.06;;;8.69;100.00
65997;BME280;52765;52.258;21.052;2023-04-07T08:02:30;100534.78;;;8.62;100.00
65997;BME280;52765;52.258;21.052;2023-04-07T08:04:57;100546.81;;;8.58;100.00
65997;BME280;52765;52.258;21.052;2023-04-07T08:07:22;100540.41;;;8.59;100.00
65997;BME280;52765;52.258;21.052;2023-04-07T08:09:48;100536.75;;;8.60;100.00
65997;BME280;52765;52.258;21.052;2023-04-07T08:12:14;100536.91;;;8.68;100.00
65997;BME280;52765;52.258;21.052;2023-04-07T08:14:39;100531.84;;;8.85;100.00
65997;BME280;52765;52.258;21.052;2023-04-07T08:17:05;100538.06;;;9.05;100.00
65997;BME280;52765;52.258;21.052;2023-04-07T08:19:31;100536.34;;;9.23;100.00
65997;BME280;52765;52.258;21.052;2023-04-07T08:21:57;100526.41;;;9.34;100.00
65997;BME280;52765;52.258;21.052;2023-04-07T08:24:22;100533.75;;;9.41;100.00
65997;BME280;52765;52.258;21.052;2023-04-07T08:26:48;100536.88;;;9.37;100.00
65997;BME280;52765;52.258;21.052;2023-04-07T08:29:14;100541.84;;;9.32;100.00
65997;BME280;52765;52.258;21.052;2023-04-07T08:31:39;100528.25;;;9.43;100.00
65997;BME280;52765;52.258;21.052;2023-04-07T08:34:05;100530.59;;;9.56;100.00
65997;BME280;52765;52.258;21.052;2023-04-07T08:36:31;100521.00;;;9.53;100.00
65997;BME280;52765;52.258;21.052;2023-04-07T08:38:56;100529.50;;;9.49;100.00
65997;BME280;52765;52.258;21.052;2023-04-07T08:41:41;100526.66;;;9.50;100.00
65997;BME280;52765;52.258;21.052;2023-04-07T08:44:09;100524.25;;;9.47;100.00
65997;BME280;52765;52.258;21.052;2023-04-07T08:46:37;100531.16;;;9.59;100.00
65997;BME280;52765;52.258;21.052;2023-04-07T08:49:07;100529.28;;;9.70;100.00
65997;BME280;52765;52.258;21.052;2023-04-07T08:51:36;100538.72;;;9.84;100.00
65997;BME280;52765;52.258;21.052;2023-04-07T08:54:11;100532.00;;;9.97;100.00
65997;BME280;52765;52.258;21.052;2023-04-07T08:56:38;100533.38;;;10.11;100.00
65997;BME280;52765;52.258;21.052;2023-04-07T08:59:09;100534.75;;;10.15;100.00
65997;BME280;52765;52.258;21.052;2023-04-07T09:01:39;100537.34;;;10.07;100.00
65997;BME280;52765;52.258;21.052;2023-04-07T09:04:06;100532.25;;;10.04;100.00
65997;BME280;52765;52.258;21.052;2023-04-07T09:06:33;100526.56;;;10.07;100.00
65997;BME280;52765;52.258;21.052;2023-04-07T09:09:01;100525.28;;;10.11;100.00
65997;BME280;52765;52.258;21.052;2023-04-07T09:11:35;100538.72;;;10.21;100.00
65997;BME280;52765;52.258;21.052;2023-04-07T09:14:09;100533.31;;;10.21;100.00
65997;BME280;52765;52.258;21.052;2023-04-07T09:16:38;100527.94;;;10.21;100.00
65997;BME280;52765;52.258;21.052;2023-04-07T09:19:04;100532.16;;;10.24;100.00
65997;BME280;52765;52.258;21.052;2023-04-07T09:21:47;100524.78;;;10.26;100.00
65997;BME280;52765;52.258;21.052;2023-04-07T09:24:24;100524.75;;;10.35;100.00
65997;BME280;52765;52.258;21.052;2023-04-07T09:26:58;100515.97;;;10.33;100.00
65997;BME280;52765;52.258;21.052;2023-04-07T09:29:32;100519.91;;;10.39;100.00
65997;BME280;52765;52.258;21.052;2023-04-07T09:31:57;100522.28;;;10.42;100.00
65997;BME280;52765;52.258;21.052;2023-04-07T09:36:48;100521.53;;;10.50;100.00
65997;BME280;52765;52.258;21.052;2023-04-07T09:39:14;100514.31;;;10.50;100.00
65997;BME280;52765;52.258;21.052;2023-04-07T09:41:45;100517.31;;;10.47;100.00
65997;BME280;52765;52.258;21.052;2023-04-07T09:44:15;100505.38;;;10.50;100.00
65997;BME280;52765;52.258;21.052;2023-04-07T09:47:00;100526.34;;;10.56;100.00
65997;BME280;52765;52.258;21.052;2023-04-07T09:49:26;100527.41;;;10.63;100.00
65997;BME280;52765;52.258;21.052;2023-04-07T09:51:59;100519.09;;;10.74;100.00
65997;BME280;52765;52.258;21.052;2023-04-07T09:54:43;100517.94;;;10.77;100.00
65997;BME280;52765;52.258;21.052;2023-04-07T09:57:11;100518.66;;;10.79;100.00
65997;BME280;52765;52.258;21.052;2023-04-07T09:59:39;100517.31;;;10.83;100.00
65997;BME280;52765;52.258;21.052;2023-04-07T10:02:09;100516.63;;;10.81;100.00
65997;BME280;52765;52.258;21.052;2023-04-07T10:04:35;100523.41;;;10.85;100.00
65997;BME280;52765;52.258;21.052;2023-04-07T10:07:01;100511.31;;;10.89;100.00
65997;BME280;52765;52.258;21.052;2023-04-07T10:09:28;100515.38;;;11.11;100.00
65997;BME280;52765;52.258;21.052;2023-04-07T10:11:56;100519.28;;;11.17;100.00
65997;BME280;52765;52.258;21.052;2023-04-07T10:14:27;100523.91;;;11.25;100.00
65997;BME280;52765;52.258;21.052;2023-04-07T10:16:56;100522.03;;;11.25;100.00
65997;BME280;52765;52.258;21.052;2023-04-07T10:19:24;100519.72;;;11.30;100.00
65997;BME280;52765;52.258;21.052;2023-04-07T10:21:52;100533.28;;;11.39;100.00
65997;BME280;52765;52.258;21.052;2023-04-07T10:27:15;100531.06;;;11.34;100.00
65997;BME280;52765;52.258;21.052;2023-04-07T10:29:44;100526.13;;;11.29;100.00
65997;BME280;52765;52.258;21.052;2023-04-07T10:32:10;100527.88;;;11.39;100.00
65997;BME280;52765;52.258;21.052;2023-04-07T10:37:17;100529.78;;;11.46;100.00
65997;BME280;52765;52.258;21.052;2023-04-07T10:39:45;100538.03;;;11.45;100.00
65997;BME280;52765;52.258;21.052;2023-04-07T10:45:10;100536.03;;;11.47;100.00
65997;BME280;52765;52.258;21.052;2023-04-07T10:50:27;100533.09;;;11.40;100.00
65997;BME280;52765;52.258;21.052;2023-04-07T10:53:09;100538.50;;;11.40;100.00
65997;BME280;52765;52.258;21.052;2023-04-07T10:55:40;100540.38;;;11.40;100.00
65997;BME280;52765;52.258;21.052;2023-04-07T11:03:21;100534.81;;;11.68;100.00
65997;BME280;52765;52.258;21.052;2023-04-07T11:05:48;100534.69;;;11.77;100.00
65997;BME280;52765;52.258;21.052;2023-04-07T11:08:13;100540.75;;;11.97;100.00
65997;BME280;52765;52.258;21.052;2023-04-07T11:10:51;100545.09;;;12.25;100.00
65997;BME280;52765;52.258;21.052;2023-04-07T11:13:16;100543.16;;;12.59;100.00
65997;BME280;52765;52.258;21.052;2023-04-07T11:15:42;100550.97;;;12.95;100.00
65997;BME280;52765;52.258;21.052;2023-04-07T11:18:18;100537.84;;;13.33;100.00
65997;BME280;52765;52.258;21.052;2023-04-07T11:21:06;100539.69;;;13.49;98.72
65997;BME280;52765;52.258;21.052;2023-04-07T11:23:40;100541.03;;;13.45;98.24
65997;BME280;52765;52.258;21.052;2023-04-07T11:26:07;100544.06;;;13.26;99.10
65997;BME280;52765;52.258;21.052;2023-04-07T11:28:33;100548.09;;;12.97;100.00
65997;BME280;52765;52.258;21.052;2023-04-07T11:30:59;100542.84;;;12.63;100.00
65997;BME280;52765;52.258;21.052;2023-04-07T11:33:28;100542.41;;;12.33;100.00
65997;BME280;52765;52.258;21.052;2023-04-07T11:35:58;100547.75;;;12.16;100.00
65997;BME280;52765;52.258;21.052;2023-04-07T11:38:28;100553.22;;;11.98;100.00
65997;BME280;52765;52.258;21.052;2023-04-07T11:40:55;100546.66;;;11.75;100.00
65997;BME280;52765;52.258;21.052;2023-04-07T11:43:23;100561.44;;;11.62;100.00
65997;BME280;52765;52.258;21.052;2023-04-07T11:48:33;100556.94;;;11.45;100.00
65997;BME280;52765;52.258;21.052;2023-04-07T11:51:00;100550.31;;;11.39;100.00
65997;BME280;52765;52.258;21.052;2023-04-07T11:56:06;100559.41;;;11.38;100.00
65997;BME280;52765;52.258;21.052;2023-04-07T11:58:37;100562.25;;;11.37;100.00
65997;BME280;52765;52.258;21.052;2023-04-07T12:01:04;100564.78;;;11.38;100.00
65997;BME280;52765;52.258;21.052;2023-04-07T12:03:34;100565.41;;;11.32;100.00
65997;BME280;52765;52.258;21.052;2023-04-07T12:06:01;100566.75;;;11.28;100.00
65997;BME280;52765;52.258;21.052;2023-04-07T12:08:45;100566.53;;;11.21;100.00
65997;BME280;52765;52.258;21.052;2023-04-07T12:11:11;100575.66;;;11.28;100.00
65997;BME280;52765;52.258;21.052;2023-04-07T12:13:36;100570.09;;;11.48;100.00
65997;BME280;52765;52.258;21.052;2023-04-07T12:16:02;100559.59;;;11.63;100.00
65997;BME280;52765;52.258;21.052;2023-04-07T12:18:28;100562.53;;;11.78;100.00
65997;BME280;52765;52.258;21.052;2023-04-07T12:20:54;100570.06;;;11.92;100.00
65997;BME280;52765;52.258;21.052;2023-04-07T12:23:20;100571.50;;;12.05;100.00
65997;BME280;52765;52.258;21.052;2023-04-07T12:25:46;100570.03;;;12.18;100.00
65997;BME280;52765;52.258;21.052;2023-04-07T12:28:14;100571.78;;;12.28;100.00
65997;BME280;52765;52.258;21.052;2023-04-07T12:30:41;100569.59;;;12.31;100.00
65997;BME280;52765;52.258;21.052;2023-04-07T12:33:07;100568.03;;;12.29;100.00
65997;BME280;52765;52.258;21.052;2023-04-07T12:35:35;100573.31;;;12.38;100.00
65997;BME280;52765;52.258;21.052;2023-04-07T12:38:01;100573.50;;;12.45;100.00
65997;BME280;52765;52.258;21.052;2023-04-07T12:40:27;100567.28;;;12.53;100.00
65997;BME280;52765;52.258;21.052;2023-04-07T12:42:54;100588.63;;;12.64;100.00
65997;BME280;52765;52.258;21.052;2023-04-07T12:45:25;100583.41;;;12.71;100.00
65997;BME280;52765;52.258;21.052;2023-04-07T12:47:51;100571.69;;;12.62;100.00
65997;BME280;52765;52.258;21.052;2023-04-07T12:50:18;100585.34;;;12.44;100.00
65997;BME280;52765;52.258;21.052;2023-04-07T12:52:46;100585.44;;;12.26;100.00
65997;BME280;52765;52.258;21.052;2023-04-07T12:55:13;100586.03;;;12.12;100.00
65997;BME280;52765;52.258;21.052;2023-04-07T12:57:39;100587.50;;;11.98;100.00
65997;BME280;52765;52.258;21.052;2023-04-07T13:00:06;100586.22;;;11.84;100.00
65997;BME280;52765;52.258;21.052;2023-04-07T13:02:32;100591.91;;;11.81;100.00
65997;BME280;52765;52.258;21.052;2023-04-07T13:05:01;100600.31;;;11.78;100.00
65997;BME280;52765;52.258;21.052;2023-04-07T13:07:27;100599.66;;;11.76;100.00
65997;BME280;52765;52.258;21.052;2023-04-07T13:09:56;100605.66;;;11.70;100.00